Time;durP1;ratioP1;P1;durP2;ratioP2;P2;SDS_P1;SDS_P2;PMS_P1;PMS_P2;Temp;Humidity;BMP_temperature;BMP_pressure;BME280_temperature;BME280_humidity;BME280_pressure;Samples;Min_cycle;Max_cycle;Signal;HPM_P1;HPM_P2
2022/06/13 00:01:17;;;;;;;7.23;3.83;;;21.70;1.00;;;;;;5046885;28;20450;-57
2022/06/13 00:03:43;;;;;;;4.10;3.10;;;21.60;1.00;;;;;;5043339;28;20697;-56
2022/06/13 00:06:09;;;;;;;4.20;3.07;;;21.50;1.00;;;;;;5044722;28;20474;-57
2022/06/13 00:08:35;;;;;;;6.43;4.10;;;21.60;1.00;;;;;;5040830;28;20533;-56
2022/06/13 00:11:05;;;;;;;5.20;3.60;;;21.60;1.00;;;;;;5043677;28;20239;-58
2022/06/13 00:13:30;;;;;;;7.37;3.47;;;21.40;1.00;;;;;;5040525;28;20965;-57
2022/06/13 00:15:56;;;;;;;3.80;3.00;;;;;;;;;;5040987;28;20458;-58
2022/06/13 00:18:23;;;;;;;4.27;3.37;;;21.30;1.00;;;;;;5047518;28;20642;-57
2022/06/13 00:20:48;;;;;;;6.37;3.43;;;21.20;1.00;;;;;;5044046;28;20533;-57
2022/06/13 00:23:15;;;;;;;5.97;3.03;;;21.20;1.00;;;;;;5045327;28;20450;-58
2022/06/13 00:25:40;;;;;;;5.27;3.13;;;21.10;1.00;;;;;;5042226;28;20484;-58
2022/06/13 00:28:06;;;;;;;4.43;3.00;;;21.10;1.00;;;;;;5045045;28;20188;-57
2022/06/13 00:30:31;;;;;;;5.37;3.10;;;21.00;1.00;;;;;;5046507;28;20188;-57
2022/06/13 00:32:57;;;;;;;3.87;3.53;;;21.00;1.00;;;;;;5050759;28;20204;-56
2022/06/13 00:35:23;;;;;;;3.33;3.03;;;21.00;1.00;;;;;;5047438;28;20188;-56
2022/06/13 00:37:48;;;;;;;5.90;2.87;;;21.00;1.00;;;;;;5042547;28;20629;-56
2022/06/13 00:40:14;;;;;;;6.10;3.33;;;21.00;1.00;;;;;;5043055;28;20200;-58
2022/06/13 00:42:41;;;;;;;6.27;3.03;;;20.90;1.00;;;;;;5039526;28;20252;-58
2022/06/13 00:45:22;;;;;;;6.67;3.30;;;20.80;1.00;;;;;;5052714;28;20644;-58
2022/06/13 00:47:51;;;;;;;3.90;3.53;;;20.70;1.00;;;;;;5046270;28;21106;-58
2022/06/13 00:50:45;;;;;;;5.10;3.30;;;20.70;1.00;;;;;;5043886;28;20786;-58
2022/06/13 00:53:23;;;;;;;4.43;3.00;;;20.80;1.00;;;;;;5046053;28;20447;-58
2022/06/13 00:55:59;;;;;;;4.57;2.97;;;20.80;1.00;;;;;;5045911;28;20609;-57
2022/06/13 00:58:26;;;;;;;4.40;4.00;;;20.70;1.00;;;;;;5044186;28;20461;-57
2022/06/13 01:00:54;;;;;;;6.17;3.43;;;20.60;1.00;;;;;;5049463;28;20462;-56
2022/06/13 01:03:21;;;;;;;3.40;3.10;;;20.60;1.00;;;;;;5040153;28;20457;-57
2022/06/13 01:05:50;;;;;;;4.57;2.97;;;20.70;1.00;;;;;;5051084;28;20489;-56
2022/06/13 01:08:17;;;;;;;3.63;2.77;;;20.70;1.00;;;;;;5051707;28;20924;-57
2022/06/13 01:14:02;;;;;;;5.03;3.40;;;20.50;1.00;;;;;;5045738;28;20776;-58
2022/06/13 01:16:52;;;;;;;4.97;3.40;;;20.50;1.00;;;;;;5050469;28;20445;-57
2022/06/13 01:19:37;;;;;;;7.83;4.07;;;20.40;1.00;;;;;;5042141;28;20450;-58
2022/06/13 01:22:31;;;;;;;4.33;3.23;;;20.40;1.00;;;;;;5048747;28;20826;-57
2022/06/13 01:25:28;;;;;;;4.70;3.33;;;20.40;1.00;;;;;;5046656;28;20501;-57
2022/06/13 01:28:05;;;;;;;5.93;3.77;;;20.50;1.00;;;;;;5048557;28;20450;-58
2022/06/13 01:30:49;;;;;;;4.53;3.53;;;20.50;1.00;;;;;;5048269;28;20951;-56
2022/06/13 01:33:30;;;;;;;6.67;3.60;;;20.50;1.00;;;;;;5047781;28;20937;-58
2022/06/13 01:36:01;;;;;;;5.00;3.10;;;20.50;1.00;;;;;;5047356;28;20918;-58
2022/06/13 01:38:48;;;;;;;7.33;3.80;;;20.50;1.00;;;;;;5050183;28;20461;-56
2022/06/13 01:41:28;;;;;;;8.53;3.83;;;20.40;1.00;;;;;;5048149;28;20434;-58
2022/06/13 01:44:13;;;;;;;4.90;3.77;;;20.30;1.00;;;;;;5046261;28;20447;-56
2022/06/13 01:46:47;;;;;;;6.43;4.37;;;20.40;1.00;;;;;;5048938;28;20478;-57
2022/06/13 01:49:35;;;;;;;3.90;3.50;;;20.20;1.00;;;;;;5048436;28;20481;-58
2022/06/13 01:52:24;;;;;;;5.90;3.83;;;20.20;1.00;;;;;;5045995;28;20936;-57
2022/06/13 01:55:03;;;;;;;4.43;3.73;;;20.10;1.00;;;;;;5026641;28;20458;-59
2022/06/13 01:57:44;;;;;;;10.80;4.17;;;20.00;1.00;;;;;;5048882;28;20932;-58
2022/06/13 02:00:13;;;;;;;9.83;5.00;;;20.00;1.00;;;;;;5048991;28;20458;-58
2022/06/13 02:02:59;;;;;;;11.00;5.43;;;20.00;1.00;;;;;;5048870;28;20446;-58
2022/06/13 02:05:44;;;;;;;9.97;4.73;;;19.90;1.00;;;;;;5047804;28;20470;-57
2022/06/13 02:08:21;;;;;;;8.37;4.47;;;19.90;1.00;;;;;;5046915;28;20485;-57
2022/06/13 02:11:00;;;;;;;7.97;4.43;;;19.80;1.00;;;;;;5043810;28;20453;-58
2022/06/13 02:13:35;;;;;;;6.97;5.00;;;19.70;1.00;;;;;;5047520;28;20445;-57
2022/06/13 02:16:12;;;;;;;6.73;4.10;;;19.80;1.00;;;;;;5036706;28;20474;-57
2022/06/13 02:18:50;;;;;;;6.77;4.50;;;19.90;1.00;;;;;;5045323;28;20450;-58
2022/06/13 02:21:18;;;;;;;6.97;4.40;;;19.90;1.00;;;;;;5047752;28;20465;-57
2022/06/13 02:23:51;;;;;;;11.57;4.10;;;20.10;1.00;;;;;;5045536;28;20469;-58
2022/06/13 02:26:25;;;;;;;9.80;4.73;;;20.10;1.00;;;;;;5048640;28;20476;-57
2022/06/13 02:28:56;;;;;;;5.40;4.47;;;20.10;1.00;;;;;;5043642;28;20528;-57
2022/06/13 02:31:32;;;;;;;9.43;5.60;;;20.00;1.00;;;;;;5047309;28;20445;-57
2022/06/13 02:34:02;;;;;;;8.37;4.37;;;20.00;1.00;;;;;;5041394;28;20542;-58
2022/06/13 02:36:39;;;;;;;7.77;6.00;;;19.90;1.00;;;;;;5048641;28;20481;-57
2022/06/13 02:39:17;;;;;;;7.77;4.20;;;19.90;1.00;;;;;;5046894;28;20451;-57
2022/06/13 02:41:50;;;;;;;6.20;3.63;;;19.90;1.00;;;;;;5043219;28;20465;-56
2022/06/13 02:44:40;;;;;;;10.17;4.23;;;19.90;1.00;;;;;;5046269;28;20476;-58
2022/06/13 02:47:16;;;;;;;11.63;4.50;;;19.90;1.00;;;;;;5039211;28;20433;-58
2022/06/13 02:49:53;;;;;;;7.27;3.90;;;19.90;1.00;;;;;;5008610;28;1090932;-57
2022/06/13 02:52:28;;;;;;;10.00;3.50;;;19.90;1.00;;;;;;5047517;28;20434;-59
2022/06/13 02:54:59;;;;;;;5.17;3.50;;;19.90;1.00;;;;;;5054756;28;20800;-58
2022/06/13 02:57:36;;;;;;;4.27;3.40;;;19.80;1.00;;;;;;5046044;28;20492;-57
2022/06/13 03:00:20;;;;;;;5.50;3.40;;;19.80;1.00;;;;;;5048937;28;20509;-55
2022/06/13 03:03:07;;;;;;;5.30;3.40;;;19.80;1.00;;;;;;5047317;28;20479;-57
2022/06/13 03:06:01;;;;;;;4.90;3.37;;;19.80;1.00;;;;;;5047918;28;20466;-57
2022/06/13 03:08:36;;;;;;;7.33;3.63;;;19.80;1.00;;;;;;5049127;28;20454;-57
2022/06/13 03:11:24;;;;;;;5.03;3.47;;;19.60;1.00;;;;;;5045628;28;20531;-57
2022/06/13 03:14:17;;;;;;;8.90;3.57;;;19.50;1.00;;;;;;5045813;28;20522;-57
2022/06/13 03:16:55;;;;;;;6.40;3.40;;;19.50;1.00;;;;;;5043568;28;21026;-57
2022/06/13 03:19:28;;;;;;;5.03;3.43;;;19.40;1.00;;;;;;5050697;28;20438;-58
2022/06/13 03:22:15;;;;;;;4.37;3.03;;;19.30;1.00;;;;;;5046350;28;20948;-57
2022/06/13 03:25:07;;;;;;;3.90;3.50;;;19.20;1.00;;;;;;5048488;28;21841;-57
2022/06/13 03:27:50;;;;;;;6.80;3.13;;;19.10;1.00;;;;;;5047508;28;20450;-57
2022/06/13 03:30:21;;;;;;;3.83;3.17;;;19.10;1.00;;;;;;5047138;28;20534;-56
2022/06/13 03:35:55;;;;;;;6.70;3.20;;;18.80;1.00;;;;;;5049243;28;21056;-56
2022/06/13 03:38:32;;;;;;;4.37;3.00;;;18.80;1.00;;;;;;5045615;28;20438;-56
2022/06/13 03:41:01;;;;;;;4.07;3.03;;;18.70;1.00;;;;;;5045632;28;20599;-56
2022/06/13 03:43:50;;;;;;;4.03;3.10;;;18.70;1.00;;;;;;5047331;28;20801;-56
2022/06/13 03:46:28;;;;;;;4.17;3.03;;;18.70;1.00;;;;;;5053186;28;20490;-56
2022/06/13 03:49:08;;;;;;;4.80;3.30;;;18.70;1.00;;;;;;5043013;28;20779;-58
2022/06/13 03:51:40;;;;;;;4.97;2.80;;;18.70;1.00;;;;;;5044175;28;20454;-57
2022/06/13 03:54:12;;;;;;;3.87;3.10;;;18.70;1.00;;;;;;5047347;28;20458;-57
2022/06/13 03:56:54;;;;;;;4.13;2.70;;;18.70;1.00;;;;;;5046905;28;20446;-56
2022/06/13 03:59:29;;;;;;;4.57;2.90;;;18.80;1.00;;;;;;5048593;28;20529;-58
2022/06/13 04:02:06;;;;;;;4.27;2.90;;;18.70;1.00;;;;;;5053966;28;20468;-57
2022/06/13 04:04:37;;;;;;;3.70;3.23;;;18.60;1.00;;;;;;5048028;28;20417;-58
2022/06/13 04:07:03;;;;;;;5.33;3.30;;;18.50;1.00;;;;;;5045065;28;20947;-57
2022/06/13 04:09:33;;;;;;;3.97;3.37;;;18.50;1.00;;;;;;5047175;28;20446;-58
2022/06/13 04:12:10;;;;;;;9.13;3.30;;;18.70;1.00;;;;;;5044959;28;20441;-58
2022/06/13 04:14:39;;;;;;;4.13;3.30;;;18.70;1.00;;;;;;5044785;28;20446;-57
2022/06/13 04:17:22;;;;;;;5.17;3.33;;;18.70;1.00;;;;;;5040146;28;20495;-56
2022/06/13 04:20:10;;;;;;;6.03;3.70;;;18.80;1.00;;;;;;5038818;28;20482;-56
2022/06/13 04:22:55;;;;;;;3.30;2.90;;;18.60;1.00;;;;;;5041810;28;21175;-56
2022/06/13 04:25:43;;;;;;;5.60;3.30;;;18.60;1.00;;;;;;5043917;28;20474;-58
2022/06/13 04:28:18;;;;;;;7.43;3.27;;;18.60;1.00;;;;;;5046591;28;20482;-57
2022/06/13 04:30:44;;;;;;;3.50;2.93;;;18.50;1.00;;;;;;5046051;28;20528;-56
2022/06/13 04:33:34;;;;;;;11.00;3.70;;;18.50;1.00;;;;;;5043707;28;20442;-57
2022/06/13 04:36:00;;;;;;;3.97;2.93;;;18.40;1.00;;;;;;5046022;28;20447;-57
2022/06/13 04:38:27;;;;;;;5.13;3.23;;;18.40;1.00;;;;;;5053475;28;20458;-58
2022/06/13 04:40:56;;;;;;;6.10;3.60;;;18.40;1.00;;;;;;5045659;28;20493;-56
2022/06/13 04:43:27;;;;;;;5.27;3.13;;;18.40;1.00;;;;;;5046390;28;20560;-56
2022/06/13 04:46:00;;;;;;;5.03;3.43;;;18.40;1.00;;;;;;5042672;28;20482;-58
2022/06/13 04:48:27;;;;;;;6.13;3.40;;;18.40;1.00;;;;;;5045623;28;20446;-57
2022/06/13 04:50:58;;;;;;;5.07;3.20;;;18.30;1.00;;;;;;5046364;28;20474;-58
2022/06/13 04:53:37;;;;;;;5.50;3.20;;;18.30;1.00;;;;;;5046201;28;20450;-57
2022/06/13 04:56:06;;;;;;;4.90;3.50;;;19.50;1.00;;;;;;5044713;28;20584;-59
2022/06/13 04:58:35;;;;;;;5.43;3.30;;;18.30;1.00;;;;;;5045668;28;20587;-58
2022/06/13 05:03:38;;;;;;;4.40;3.40;;;18.50;1.00;;;;;;5047372;28;20446;-59
2022/06/13 05:06:27;;;;;;;4.50;3.17;;;18.70;1.00;;;;;;5046418;28;20501;-57
2022/06/13 05:08:58;;;;;;;4.93;2.57;;;18.80;1.00;;;;;;5044673;28;20439;-57
2022/06/13 05:11:32;;;;;;;7.50;3.50;;;18.90;1.00;;;;;;5047839;28;20458;-58
2022/06/13 05:14:23;;;;;;;7.27;3.77;;;19.10;1.00;;;;;;5046887;28;20446;-59
2022/06/13 05:17:22;;;;;;;6.60;3.10;;;19.20;1.00;;;;;;5044800;28;20461;-59
2022/06/13 05:20:01;;;;;;;5.80;3.40;;;19.50;1.00;;;;;;5034810;28;20486;-57
2022/06/13 05:22:53;;;;;;;6.30;3.47;;;19.60;1.00;;;;;;5052821;28;20442;-57
2022/06/13 05:25:43;;;;;;;10.67;4.20;;;19.50;1.00;;;;;;5043093;28;20518;-57
2022/06/13 05:28:11;;;;;;;6.60;3.73;;;19.60;1.00;;;;;;5047255;28;20525;-56
2022/06/13 05:30:40;;;;;;;5.00;4.23;;;19.70;1.00;;;;;;5044624;28;20966;-57
2022/06/13 05:33:06;;;;;;;9.07;4.43;;;19.90;1.00;;;;;;5045768;28;20443;-57
2022/06/13 05:35:35;;;;;;;6.60;3.80;;;19.90;1.00;;;;;;5043822;28;20469;-58
2022/06/13 05:38:02;;;;;;;5.37;3.40;;;20.00;1.00;;;;;;5042486;28;20633;-57
2022/06/13 05:40:28;;;;;;;5.43;3.13;;;20.10;1.00;;;;;;5047008;28;20531;-57
2022/06/13 05:42:54;;;;;;;7.97;2.83;;;20.40;1.00;;;;;;5040075;28;20452;-58
2022/06/13 05:45:22;;;;;;;8.20;3.00;;;20.50;1.00;;;;;;5045004;28;20536;-58
2022/06/13 05:47:50;;;;;;;7.20;3.60;;;20.20;1.00;;;;;;5052183;28;20445;-57
2022/06/13 05:50:22;;;;;;;4.47;2.93;;;20.00;1.00;;;;;;5054063;28;20495;-57
2022/06/13 05:52:48;;;;;;;5.90;3.33;;;20.00;1.00;;;;;;5047413;28;20442;-58
2022/06/13 05:55:14;;;;;;;4.50;3.07;;;19.90;1.00;;;;;;5049234;28;20441;-57
2022/06/13 05:57:40;;;;;;;5.33;2.87;;;19.70;1.00;;;;;;5049705;28;20446;-57
2022/06/13 06:00:14;;;;;;;7.50;3.00;;;19.70;1.00;;;;;;5060018;28;20199;-63
2022/06/13 06:02:40;;;;;;;8.17;3.30;;;19.60;1.00;;;;;;5058235;28;20653;-63
2022/06/13 06:05:06;;;;;;;5.60;3.20;;;19.70;1.00;;;;;;5056683;28;20464;-63
2022/06/13 06:07:33;;;;;;;8.40;3.03;;;19.80;1.00;;;;;;5056369;28;20453;-64
2022/06/13 06:10:00;;;;;;;3.93;2.50;;;19.80;1.00;;;;;;5052389;28;20196;-63
2022/06/13 06:12:27;;;;;;;4.87;3.00;;;20.10;1.00;;;;;;5052528;28;20457;-63
2022/06/13 06:14:53;;;;;;;4.40;3.00;;;20.40;1.00;;;;;;5056784;28;20446;-64
2022/06/13 06:17:19;;;;;;;6.60;3.30;;;20.70;1.00;;;;;;5049880;28;20242;-65
2022/06/13 06:19:44;;;;;;;3.23;2.70;;;20.70;1.00;;;;;;5050561;28;20180;-65
2022/06/13 06:22:10;;;;;;;7.93;2.83;;;20.60;1.00;;;;;;5056530;28;20192;-59
2022/06/13 06:24:36;;;;;;;2.77;2.30;;;20.80;1.00;;;;;;5049744;28;20198;-59
2022/06/13 06:27:02;;;;;;;3.73;2.47;;;20.90;1.00;;;;;;5049747;28;20558;-60
2022/06/13 06:29:27;;;;;;;12.23;3.27;;;20.90;1.00;;;;;;5048477;28;20184;-59
2022/06/13 06:31:54;;;;;;;7.63;3.00;;;21.50;1.00;;;;;;5050552;28;20807;-60
2022/06/13 06:34:20;;;;;;;5.10;3.33;;;21.40;1.00;;;;;;5047990;28;20192;-59
2022/06/13 06:36:45;;;;;;;6.53;2.80;;;21.80;1.00;;;;;;5047856;28;20456;-58
2022/06/13 06:39:11;;;;;;;6.90;3.43;;;22.10;1.00;;;;;;5049204;28;20180;-59
2022/06/13 06:41:37;;;;;;;4.50;2.77;;;22.40;1.00;;;;;;5045434;28;20204;-59
2022/06/13 06:44:02;;;;;;;7.03;2.90;;;22.50;1.00;;;;;;5045260;28;20280;-60
2022/06/13 06:46:28;;;;;;;4.00;2.77;;;22.60;1.00;;;;;;5045818;28;20247;-58
2022/06/13 06:48:53;;;;;;;4.23;2.83;;;22.40;1.00;;;;;;5049058;28;20279;-59
2022/06/13 06:51:19;;;;;;;6.33;2.87;;;22.20;1.00;;;;;;5048891;28;20267;-58
2022/06/13 07:02:00;;;;;;;4.50;2.87;;;23.50;1.00;;;;;;5049784;28;20535;-59
2022/06/13 07:04:25;;;;;;;5.67;2.70;;;23.50;1.00;;;;;;5047374;28;20458;-58
2022/06/13 07:06:51;;;;;;;10.67;3.53;;;;;;;;;;5048382;28;20516;-58
2022/06/13 07:09:17;;;;;;;4.50;2.50;;;22.70;1.00;;;;;;5046167;28;20266;-59
2022/06/13 07:11:55;;;;;;;3.40;2.13;;;22.50;1.00;;;;;;5045612;28;20458;-59
2022/06/13 07:14:31;;;;;;;7.77;2.60;;;22.40;1.00;;;;;;5049045;28;20583;-58
2022/06/13 07:16:58;;;;;;;5.80;2.50;;;22.20;1.00;;;;;;5048965;28;20783;-59
2022/06/13 07:19:24;;;;;;;2.77;2.07;;;22.20;1.00;;;;;;5048925;28;20443;-59
2022/06/13 07:21:50;;;;;;;4.07;2.90;;;22.20;1.00;;;;;;5044710;28;20539;-58
2022/06/13 07:24:17;;;;;;;5.53;2.50;;;22.20;1.00;;;;;;5047364;28;20454;-59
2022/06/13 07:26:43;;;;;;;4.27;2.57;;;22.30;1.00;;;;;;5044984;28;20473;-58
2022/06/13 07:29:09;;;;;;;6.70;2.70;;;22.80;1.00;;;;;;5049253;28;20532;-59
2022/06/13 07:31:40;;;;;;;3.60;2.60;;;;;;;;;;5045105;28;20425;-58
2022/06/13 07:34:11;;;;;;;4.07;2.73;;;23.10;1.00;;;;;;5046447;28;20416;-59
2022/06/13 07:36:37;;;;;;;5.73;2.00;;;23.40;1.00;;;;;;5048952;28;20450;-58
2022/06/13 07:39:03;;;;;;;10.13;3.50;;;23.40;1.00;;;;;;5050223;28;20538;-59
2022/06/13 07:41:29;;;;;;;7.37;3.37;;;23.50;1.00;;;;;;5045286;28;20637;-62
2022/06/13 07:43:56;;;;;;;7.80;2.63;;;23.60;1.00;;;;;;5046940;28;20224;-58
2022/06/13 07:46:25;;;;;;;3.60;2.60;;;23.50;1.00;;;;;;5047613;28;20470;-59
2022/06/13 07:48:51;;;;;;;8.03;3.03;;;23.50;1.00;;;;;;5046223;28;20532;-59
2022/06/13 07:51:16;;;;;;;5.67;2.47;;;23.60;1.00;;;;;;5058237;28;20948;-59
2022/06/13 07:53:42;;;;;;;3.30;2.40;;;23.50;1.00;;;;;;5045267;28;20226;-59
2022/06/13 07:56:12;;;;;;;3.77;2.40;;;23.50;1.00;;;;;;5048253;28;20406;-59
2022/06/13 07:58:38;;;;;;;7.00;3.20;;;23.90;1.00;;;;;;5046789;28;20235;-58
2022/06/13 08:01:27;;;;;;;8.00;2.60;;;23.90;1.00;;;;;;5046877;28;20486;-60
2022/06/13 08:03:54;;;;;;;9.33;3.00;;;23.80;1.00;;;;;;5045338;28;20227;-59
2022/06/13 08:06:20;;;;;;;5.10;2.63;;;23.60;1.00;;;;;;5047747;28;20520;-58
2022/06/13 08:08:46;;;;;;;7.10;3.50;;;22.90;1.00;;;;;;5053584;28;20854;-58
2022/06/13 08:11:16;;;;;;;6.63;3.13;;;22.00;1.00;;;;;;5048028;28;20753;-58
2022/06/13 08:13:42;;;;;;;3.80;2.77;;;21.90;1.00;;;;;;5046709;28;20843;-58
2022/06/13 08:16:09;;;;;;;4.67;2.93;;;21.80;1.00;;;;;;5048078;28;20417;-60
2022/06/13 08:18:36;;;;;;;4.03;2.97;;;21.90;1.00;;;;;;5045391;28;20567;-58
2022/06/13 08:21:04;;;;;;;6.27;2.47;;;22.00;1.00;;;;;;5047599;28;20417;-59
2022/06/13 08:23:30;;;;;;;6.83;2.90;;;22.10;1.00;;;;;;5049894;28;20443;-61
2022/06/13 08:25:56;;;;;;;3.60;2.00;;;22.00;1.00;;;;;;5049549;28;20462;-58
2022/06/13 08:28:22;;;;;;;5.10;2.47;;;22.40;1.00;;;;;;5049729;28;20430;-58
2022/06/13 08:30:52;;;;;;;8.00;3.43;;;22.40;1.00;;;;;;5048619;28;20184;-58
2022/06/13 08:33:19;;;;;;;5.90;2.77;;;22.40;1.00;;;;;;5047076;28;20196;-58
2022/06/13 08:35:45;;;;;;;4.80;2.50;;;22.60;1.00;;;;;;5047101;28;20449;-59
2022/06/13 08:38:11;;;;;;;4.60;2.37;;;22.80;1.00;;;;;;5042102;28;20936;-58
2022/06/13 08:41:04;;;;;;;4.77;2.33;;;23.20;1.00;;;;;;5046459;28;20184;-58
2022/06/13 08:43:58;;;;;;;5.13;2.93;;;23.20;1.00;;;;;;5039537;28;20704;-58
2022/06/13 08:46:23;;;;;;;4.80;2.17;;;23.40;1.00;;;;;;5045773;28;20977;-58
2022/06/13 08:49:01;;;;;;;7.50;2.57;;;23.30;1.00;;;;;;5044855;28;20422;-59
2022/06/13 08:51:45;;;;;;;5.90;2.40;;;23.20;1.00;;;;;;5047213;28;20188;-59
2022/06/13 08:54:16;;;;;;;3.70;2.93;;;23.20;1.00;;;;;;5045888;28;20447;-59
2022/06/13 08:56:43;;;;;;;5.37;2.57;;;23.40;1.00;;;;;;5043471;28;20541;-59
2022/06/13 08:59:24;;;;;;;8.00;2.60;;;23.30;1.00;;;;;;5045477;28;20450;-58
2022/06/13 09:02:13;;;;;;;6.23;2.90;;;23.20;1.00;;;;;;5047632;28;20454;-60
2022/06/13 09:04:45;;;;;;;4.60;2.50;;;23.70;1.00;;;;;;5044827;28;20462;-59
2022/06/13 09:07:29;;;;;;;6.07;3.13;;;23.80;1.00;;;;;;5043765;28;20500;-59
2022/06/13 09:10:05;;;;;;;5.90;2.57;;;24.00;1.00;;;;;;5049194;28;20441;-59
2022/06/13 09:12:56;;;;;;;4.73;2.57;;;23.80;1.00;;;;;;5047056;28;20475;-59
2022/06/13 09:15:30;;;;;;;4.70;2.33;;;23.80;1.00;;;;;;5034939;28;20922;-58
2022/06/13 09:18:02;;;;;;;5.90;2.90;;;24.20;1.00;;;;;;5047446;28;20445;-59
2022/06/13 09:21:06;;;;;;;7.47;2.50;;;24.20;1.00;;;;;;5046197;28;21380;-60
2022/06/13 09:23:46;;;;;;;10.27;3.23;;;23.80;1.00;;;;;;5050905;28;20531;-60
2022/06/13 09:26:23;;;;;;;5.27;3.10;;;23.90;1.00;;;;;;5044524;28;20484;-60
2022/06/13 09:29:11;;;;;;;5.30;3.10;;;24.10;1.00;;;;;;5050856;28;20495;-59
2022/06/13 09:31:46;;;;;;;5.50;2.50;;;24.10;1.00;;;;;;5051672;28;21983;-59
2022/06/13 09:34:26;;;;;;;4.67;2.90;;;23.90;1.00;;;;;;5049851;28;20442;-59
2022/06/13 09:37:15;;;;;;;6.87;3.20;;;23.70;1.00;;;;;;5049910;28;20474;-59
2022/06/13 09:39:41;;;;;;;6.37;2.80;;;23.60;1.00;;;;;;5051728;28;20443;-58
2022/06/13 09:42:25;;;;;;;4.50;3.50;;;23.20;1.00;;;;;;5048630;28;20410;-60
2022/06/13 09:45:05;;;;;;;3.00;2.60;;;23.00;1.00;;;;;;5049501;28;20800;-58
2022/06/13 09:47:50;;;;;;;5.83;2.83;;;22.60;1.00;;;;;;5050785;28;20492;-58
2022/06/13 09:50:32;;;;;;;6.47;2.83;;;22.40;1.00;;;;;;5051173;28;20501;-59
2022/06/13 09:53:25;;;;;;;4.00;2.70;;;22.50;1.00;;;;;;5050733;28;20450;-58
2022/06/13 09:56:05;;;;;;;6.43;2.37;;;22.50;1.00;;;;;;5049194;28;20555;-59
2022/06/13 09:59:05;;;;;;;3.33;2.80;;;22.80;1.00;;;;;;5049488;28;20568;-58
2022/06/13 10:01:56;;;;;;;3.63;2.30;;;23.20;1.00;;;;;;5048046;28;20461;-58
2022/06/13 10:04:49;;;;;;;5.87;2.20;;;23.20;1.00;;;;;;5046959;28;20617;-58
2022/06/13 10:07:20;;;;;;;7.80;2.87;;;23.40;1.00;;;;;;5049961;28;20488;-59
2022/06/13 10:09:59;;;;;;;4.33;2.77;;;23.60;1.00;;;;;;5050104;28;20900;-59
2022/06/13 10:12:39;;;;;;;5.77;3.07;;;23.70;1.00;;;;;;5061013;28;20443;-59
2022/06/13 10:15:23;;;;;;;4.20;3.00;;;24.00;1.00;;;;;;5051129;28;20489;-59
2022/06/13 10:17:59;;;;;;;5.63;3.10;;;24.30;1.00;;;;;;5044938;28;20527;-59
2022/06/13 10:20:44;;;;;;;4.50;2.37;;;24.10;1.00;;;;;;5049960;28;20445;-58
2022/06/13 10:23:37;;;;;;;6.93;3.07;;;23.40;1.00;;;;;;5050797;28;20457;-59
2022/06/13 10:26:29;;;;;;;5.30;2.90;;;23.40;1.00;;;;;;5046602;28;20469;-58
2022/06/13 10:29:06;;;;;;;5.30;2.90;;;23.10;1.00;;;;;;5049424;28;20481;-63
2022/06/13 10:31:50;;;;;;;7.40;3.17;;;23.40;1.00;;;;;;5050989;28;20484;-59
2022/06/13 10:34:18;;;;;;;8.23;2.40;;;23.40;1.00;;;;;;5051399;28;20438;-57
2022/06/13 10:36:56;;;;;;;7.67;3.63;;;23.00;1.00;;;;;;5050440;28;20479;-58
2022/06/13 10:39:24;;;;;;;4.80;2.87;;;23.00;1.00;;;;;;5053432;28;20438;-58
2022/06/13 10:41:54;;;;;;;3.57;2.80;;;22.90;1.00;;;;;;5048118;28;20839;-59
2022/06/13 10:44:21;;;;;;;3.67;2.70;;;22.90;1.00;;;;;;5042864;28;20449;-59
2022/06/13 10:46:51;;;;;;;4.80;2.60;;;23.00;1.00;;;;;;5049729;28;20451;-59
2022/06/13 10:49:28;;;;;;;4.17;2.33;;;23.10;1.00;;;;;;5047954;28;20522;-58
2022/06/13 10:52:03;;;;;;;5.43;3.07;;;23.20;1.00;;;;;;5048960;28;20450;-59
2022/06/13 10:54:33;;;;;;;5.57;3.20;;;;;;;;;;5045280;28;20457;-59
2022/06/13 10:57:29;;;;;;;4.40;2.63;;;22.70;1.00;;;;;;5048176;28;20508;-59
2022/06/13 11:00:20;;;;;;;3.70;2.60;;;22.40;1.00;;;;;;5043589;28;20966;-58
2022/06/13 11:02:47;;;;;;;4.67;2.40;;;22.70;1.00;;;;;;5048506;28;20537;-58
2022/06/13 11:05:19;;;;;;;4.27;2.47;;;22.90;1.00;;;;;;5046125;28;20858;-60
2022/06/13 11:07:51;;;;;;;3.97;2.20;;;22.80;1.00;;;;;;5048836;28;20462;-57
2022/06/13 11:10:36;;;;;;;6.57;2.40;;;22.70;1.00;;;;;;5046731;28;20454;-57
2022/06/13 11:13:04;;;;;;;5.63;2.83;;;22.90;1.00;;;;;;5049165;28;20477;-59
2022/06/13 11:24:17;;;;;;;5.47;2.60;;;23.10;1.00;;;;;;5045064;28;20604;-58
2022/06/13 11:29:32;;;;;;;3.10;2.40;;;23.40;1.00;;;;;;5048739;28;20476;-58
2022/06/13 11:32:00;;;;;;;6.27;2.40;;;23.10;1.00;;;;;;5047955;28;20504;-58
2022/06/13 11:34:32;;;;;;;4.33;2.00;;;23.10;1.00;;;;;;5048803;28;20853;-57
2022/06/13 11:37:04;;;;;;;5.83;2.77;;;23.10;1.00;;;;;;5048861;28;20447;-59
2022/06/13 11:39:36;;;;;;;2.57;2.33;;;23.10;1.00;;;;;;5047564;28;20442;-58
2022/06/13 11:42:03;;;;;;;5.13;2.60;;;23.30;1.00;;;;;;5047452;28;20450;-59
2022/06/13 11:44:29;;;;;;;5.10;2.77;;;23.30;1.00;;;;;;5046303;28;20446;-58
2022/06/13 11:47:01;;;;;;;6.23;2.07;;;23.60;1.00;;;;;;5048955;28;20485;-59
2022/06/13 11:49:34;;;;;;;5.33;2.20;;;23.30;1.00;;;;;;5047864;28;20524;-58
2022/06/13 11:52:11;;;;;;;5.77;2.37;;;23.20;1.00;;;;;;5046603;28;20461;-58
2022/06/13 11:54:42;;;;;;;4.63;2.30;;;;;;;;;;5048595;28;20447;-59
2022/06/13 11:57:14;;;;;;;3.47;2.03;;;23.50;1.00;;;;;;5046620;28;20421;-59
2022/06/13 11:59:47;;;;;;;4.43;2.73;;;23.60;1.00;;;;;;5047715;28;20550;-59
2022/06/13 12:02:18;;;;;;;7.37;2.33;;;23.60;1.00;;;;;;5049276;28;20467;-59
2022/06/13 12:04:48;;;;;;;4.27;2.23;;;23.70;1.00;;;;;;5049384;28;20453;-58
2022/06/13 12:07:31;;;;;;;6.47;2.70;;;23.70;1.00;;;;;;5047566;28;21046;-58
2022/06/13 12:10:00;;;;;;;5.53;3.00;;;23.50;1.00;;;;;;5048366;28;20449;-58
2022/06/13 12:12:43;;;;;;;5.70;2.83;;;23.70;1.00;;;;;;5047364;28;20748;-57
2022/06/13 12:15:11;;;;;;;4.13;2.60;;;23.70;1.00;;;;;;5048913;28;20450;-59
2022/06/13 12:17:45;;;;;;;6.87;3.20;;;23.00;1.00;;;;;;5047430;28;20519;-57
2022/06/13 12:20:31;;;;;;;6.70;2.70;;;22.90;1.00;;;;;;5045363;28;20417;-58
2022/06/13 12:23:06;;;;;;;10.73;3.00;;;22.40;1.00;;;;;;5050007;28;20457;-59
2022/06/13 12:25:56;;;;;;;7.67;2.97;;;22.70;1.00;;;;;;5048717;28;21060;-58
2022/06/13 12:28:26;;;;;;;3.97;2.27;;;22.50;1.00;;;;;;5047651;28;20955;-57
2022/06/13 12:30:57;;;;;;;4.40;1.70;;;22.30;1.00;;;;;;5047897;28;20425;-58
2022/06/13 12:33:26;;;;;;;4.10;2.00;;;22.50;1.00;;;;;;5045026;28;20438;-58
2022/06/13 12:36:14;;;;;;;7.10;2.23;;;22.40;1.00;;;;;;5046559;28;20446;-59
2022/06/13 12:39:13;;;;;;;4.00;1.40;;;21.90;1.00;;;;;;5046202;28;20446;-58
2022/06/13 12:41:51;;;;;;;3.03;2.17;;;21.60;1.00;;;;;;5047725;28;20801;-59
2022/06/13 12:44:29;;;;;;;7.40;2.00;;;21.70;1.00;;;;;;5047850;28;20796;-59
2022/06/13 12:47:26;;;;;;;4.73;1.90;;;21.90;1.00;;;;;;5062164;28;20828;-60
2022/06/13 12:50:21;;;;;;;5.13;1.53;;;22.00;1.00;;;;;;5042643;28;20473;-59
2022/06/13 12:53:08;;;;;;;3.47;1.23;;;22.00;1.00;;;;;;5045248;28;20441;-58
2022/06/13 12:55:53;;;;;;;2.53;1.80;;;22.00;1.00;;;;;;5049821;28;20438;-59
2022/06/13 12:58:49;;;;;;;2.80;1.40;;;21.90;1.00;;;;;;5047859;28;20961;-59
2022/06/13 13:01:22;;;;;;;4.20;1.40;;;21.80;1.00;;;;;;5051702;28;20420;-58
2022/06/13 13:04:13;;;;;;;4.20;2.17;;;21.60;1.00;;;;;;5054024;28;20993;-58
2022/06/13 13:06:58;;;;;;;5.50;2.50;;;21.60;1.00;;;;;;5048828;28;20492;-59
2022/06/13 13:09:41;;;;;;;2.40;1.40;;;21.20;1.00;;;;;;5050186;28;20477;-59
2022/06/13 13:12:38;;;;;;;2.77;1.80;;;20.80;1.00;;;;;;5047499;28;21041;-58
2022/06/13 13:15:20;;;;;;;3.63;1.60;;;21.00;1.00;;;;;;5049626;28;20500;-58
2022/06/13 13:18:24;;;;;;;6.07;1.77;;;21.00;1.00;;;;;;5052025;28;20469;-59
2022/06/13 13:21:18;;;;;;;2.60;1.40;;;21.00;1.00;;;;;;5049921;28;20414;-58
2022/06/13 13:24:03;;;;;;;3.23;1.50;;;21.40;1.00;;;;;;5045918;28;20957;-59
2022/06/13 13:26:47;;;;;;;4.13;1.77;;;21.40;1.00;;;;;;5049963;28;20519;-59
2022/06/13 13:29:33;;;;;;;3.63;1.50;;;21.00;1.00;;;;;;5051458;28;20799;-59
2022/06/13 13:32:20;;;;;;;4.83;1.80;;;21.00;1.00;;;;;;5051503;28;20479;-59
2022/06/13 13:35:03;;;;;;;4.50;1.50;;;21.10;1.00;;;;;;5049657;28;20437;-59
2022/06/13 13:37:52;;;;;;;2.50;1.83;;;21.20;1.00;;;;;;5049722;28;20465;-59
2022/06/13 13:40:26;;;;;;;3.17;1.57;;;21.20;1.00;;;;;;5043917;28;20446;-59
2022/06/13 13:42:57;;;;;;;1.97;1.60;;;21.40;1.00;;;;;;5049847;28;20464;-59
2022/06/13 13:46:00;;;;;;;1.83;1.30;;;21.50;1.00;;;;;;5050393;28;20845;-59
2022/06/13 13:48:31;;;;;;;3.63;1.57;;;21.20;1.00;;;;;;5048218;28;20437;-59
2022/06/13 13:51:23;;;;;;;2.43;1.57;;;21.20;1.00;;;;;;5047424;28;20512;-59
2022/06/13 13:54:01;;;;;;;8.50;6.73;;;20.90;1.00;;;;;;5050833;28;20446;-58
2022/06/13 13:56:43;;;;;;;3.10;1.50;;;20.90;1.00;;;;;;5049509;28;20454;-58
2022/06/13 13:59:14;;;;;;;1.90;1.27;;;;;;;;;;5048372;28;20443;-59
2022/06/13 14:01:47;;;;;;;2.97;1.17;;;21.10;1.00;;;;;;5050042;28;20744;-59
2022/06/13 14:04:40;;;;;;;3.60;1.20;;;21.20;1.00;;;;;;5051138;28;20444;-60
2022/06/13 14:07:36;;;;;;;3.03;1.43;;;21.80;1.00;;;;;;5050913;28;20462;-58
2022/06/13 14:10:03;;;;;;;2.10;1.23;;;21.80;1.00;;;;;;5048310;28;20453;-58